KGMU/GMU METAR and TAF weather

Enter ICAO airport designator
Station Type Date Time Source
KGMU METAR 2020/04/10 17:53 UTC NOAA

KGMU 101753Z 01010KT 10SM CLR 16/M08 A2992 RMK AO2 SLP127 T01561078 10161 20122 58005


Station Type Date Time Source
KGMU Decoded METAR 2020/04/10 17:53 UTC NOAA

GREENVILLE DOWNTOWN AIRPORT , SC, United States (KGMU) 34-51N 82-21W 315M
Apr 10, 2020 - 01:53 PM EDT / 2020.04.10 1753 UTC
Wind: from the N (010 degrees) at 12 MPH (10 KT):0
Visibility: 10 mile(s):0
Sky conditions: clear
Temperature: 60.1 F (15.6 C)
Dew Point: 18.0 F (-7.8 C)
Relative Humidity: 19%
Pressure (altimeter): 29.92 in. Hg (1013 hPa)
Pressure tendency: 0.01 inches (0.5 hPa) lower than three hours ago
ob: KGMU 101753Z 01010KT 10SM CLR 16/M08 A2992 RMK AO2 SLP127 T01561078 10161 20122 58005
cycle: 18

Station Type Date Time Source
KGMU TAF 2020/04/10 18:42 UTC NOAA

TAF KGMU 101740Z 1018/1118 35009G17KT P6SM SKC
FM102100 33011KT P6SM SKC
FM110700 03006KT P6SM SKC
FM111300 14003KT P6SM SKC
FM111500 20007KT P6SM SKC

Example: see airport list